Donnie Sonier — WDF9285 — position and weather

sailwx.info

Track history (hours):
 
Tides and Currents Weather Stations Pressure Air Temp Water Temp Dewpoint Dewpoint Depression Visibility Wind Speed Wind Dir Waves Ship Positions

Donnie Sonier

Owner: LeBeouf Bros. Towing, LLC, Houma, LA. More information available from US FCC via Universal Licensing System and Coast Guard Vessel Documentation Center.

Last reported at 2018-Feb-20 09:16 UTC. Time now 2018-Feb-22 18:37 UTC.
Position N 29°24' W 094°45'.

Length 22 m; draft 3.5 m.

Type: Tug. MMSI: 367503580.

Date/timePositionNaut miles runAvg speedWind from/ knotsBaromVisibWave heightAir tempDewpointWater temp
2018-Feb-20 09:16N 29°24' W 094°45'0 0.0
2018-Feb-20 07:33N 29°24' W 094°45'0 0.1
2018-Feb-20 07:27N 29°24' W 094°45'0 0.0
2018-Feb-20 07:00N 29°24' W 094°45'6 0.6
2018-Feb-19 20:31N 29°22' W 094°51'0 5.8
2018-Feb-19 20:30N 29°22' W 094°51'3 0.3
2018-Feb-19 08:57N 29°22' W 094°55'0 0.0
2018-Feb-19 08:24N 29°22' W 094°55'0 0.0
2018-Feb-19 07:44N 29°22' W 094°55'0 0.0
2018-Feb-19 07:30N 29°22' W 094°55'0 0.0
2018-Feb-19 06:47N 29°22' W 094°55'0 0.0
2018-Feb-19 06:19N 29°22' W 094°55'0 0.0
2018-Feb-19 05:41N 29°22' W 094°55'0 0.0
2018-Feb-19 05:21N 29°22' W 094°55'12 1.9
2018-Feb-18 23:11N 29°33' W 094°55'1 7.1
2018-Feb-18 23:00N 29°34' W 094°56'3 6.9
2018-Feb-18 22:30N 29°37' W 094°58'4 7.3
2018-Feb-18 22:00N 29°41' W 094°59'4 0.1
2018-Feb-17 18:00N 29°42' W 095°03'0 0.0
2018-Feb-16 18:46N 29°42' W 095°03'0 0.0
2018-Feb-16 18:30N 29°42' W 095°03'0 0.0
2018-Feb-16 17:54N 29°42' W 095°03'0 0.0
2018-Feb-16 17:30N 29°42' W 095°03'0 0.0
2018-Feb-16 17:00N 29°42' W 095°03'0 0.0
2018-Feb-16 16:26N 29°42' W 095°03'0 0.0
2018-Feb-16 15:59N 29°42' W 095°03'0 0.0
2018-Feb-16 15:28N 29°42' W 095°03'0 0.0
2018-Feb-16 15:00N 29°42' W 095°03'0 0.0
2018-Feb-16 14:23N 29°42' W 095°03'2 0.3
2018-Feb-16 09:24N 29°44' W 095°03'0 0.0
2018-Feb-16 09:00N 29°44' W 095°03'0 0.0
2018-Feb-16 08:18N 29°44' W 095°03'0 0.0
2018-Feb-16 07:49N 29°44' W 095°03'0 0.0
2018-Feb-16 07:26N 29°44' W 095°03'0 0.0
2018-Feb-16 06:57N 29°44' W 095°03'0 0.0
2018-Feb-16 06:30N 29°44' W 095°03'0 0.0
2018-Feb-16 06:00N 29°44' W 095°03'0 0.0
2018-Feb-16 05:30N 29°44' W 095°03'0 0.0
2018-Feb-16 04:59N 29°44' W 095°03'2 2.1
2018-Feb-16 04:10N 29°43' W 095°01'2 0.2
2018-Feb-15 19:36N 29°42' W 095°03'0 0.0
2018-Feb-15 06:27N 29°42' W 095°03'  
2018-Feb-10 22:49N 29°42' W 095°01'2 5.7
2018-Feb-10 22:28N 29°41' W 094°59'5 6.0
2018-Feb-10 21:42N 29°37' W 094°58'1 6.5
2018-Feb-10 21:30N 29°37' W 094°60'1 3.0
2018-Feb-10 21:01N 29°37' W 095°02'0 0.0
2018-Feb-10 20:31N 29°37' W 095°02'0 0.0
2018-Feb-10 20:00N 29°37' W 095°02'0 0.0
2018-Feb-10 19:31N 29°37' W 095°02'0 0.0
2018-Feb-10 19:00N 29°37' W 095°02'0 0.0
2018-Feb-10 18:31N 29°37' W 095°02'0 0.0
2018-Feb-10 18:00N 29°37' W 095°02'0 0.0
2018-Feb-10 17:29N 29°37' W 095°02'0 0.0
2018-Feb-10 17:00N 29°37' W 095°02'0 0.0
2018-Feb-10 16:30N 29°37' W 095°02'0 0.0
2018-Feb-10 16:00N 29°37' W 095°02'0 0.0
2018-Feb-10 15:27N 29°37' W 095°02'0 0.0
2018-Feb-10 15:00N 29°37' W 095°02'0 0.0
2018-Feb-10 14:28N 29°37' W 095°02'0 0.0
2018-Feb-10 14:00N 29°37' W 095°02'0 0.0
2018-Feb-10 13:26N 29°37' W 095°02'0 0.0
2018-Feb-10 12:57N 29°37' W 095°02'0 0.0
2018-Feb-10 12:27N 29°37' W 095°02'0 0.0
2018-Feb-10 12:00N 29°37' W 095°02'0 0.0
2018-Feb-10 11:31N 29°37' W 095°02'0 0.0
2018-Feb-10 11:01N 29°37' W 095°02'0 0.0
2018-Feb-10 10:31N 29°37' W 095°02'0 0.0
2018-Feb-10 10:00N 29°37' W 095°02'0 0.0
2018-Feb-10 09:30N 29°37' W 095°02'  
Track history (hours):
 
Tides and Currents Weather Stations Pressure Air Temp Water Temp Dewpoint Dewpoint Depression Visibility Wind Speed Wind Dir Waves Ship Positions

Donnie Sonier

Owner: LeBeouf Bros. Towing, LLC, Houma, LA. More information available from US FCC via Universal Licensing System and Coast Guard Vessel Documentation Center.

Last reported at 2018-Feb-20 09:16 UTC. Time now 2018-Feb-22 18:37 UTC.
Position N 29°24' W 094°45'.

Length 22 m; draft 3.5 m.

Type: Tug. MMSI: 367503580.

Date/timePositionNaut miles runAvg speedWind from/ knotsBaromVisibWave heightAir tempDewpointWater temp
2018-Feb-20 09:16N 29°24' W 094°45'0 0.0
2018-Feb-20 07:33N 29°24' W 094°45'0 0.1
2018-Feb-20 07:27N 29°24' W 094°45'0 0.0
2018-Feb-20 07:00N 29°24' W 094°45'6 0.6
2018-Feb-19 20:31N 29°22' W 094°51'0 5.8
2018-Feb-19 20:30N 29°22' W 094°51'3 0.3
2018-Feb-19 08:57N 29°22' W 094°55'0 0.0
2018-Feb-19 08:24N 29°22' W 094°55'0 0.0
2018-Feb-19 07:44N 29°22' W 094°55'0 0.0
2018-Feb-19 07:30N 29°22' W 094°55'0 0.0
2018-Feb-19 06:47N 29°22' W 094°55'0 0.0
2018-Feb-19 06:19N 29°22' W 094°55'0 0.0
2018-Feb-19 05:41N 29°22' W 094°55'0 0.0
2018-Feb-19 05:21N 29°22' W 094°55'12 1.9
2018-Feb-18 23:11N 29°33' W 094°55'1 7.1
2018-Feb-18 23:00N 29°34' W 094°56'3 6.9
2018-Feb-18 22:30N 29°37' W 094°58'4 7.3
2018-Feb-18 22:00N 29°41' W 094°59'4 0.1
2018-Feb-17 18:00N 29°42' W 095°03'0 0.0
2018-Feb-16 18:46N 29°42' W 095°03'0 0.0
2018-Feb-16 18:30N 29°42' W 095°03'0 0.0
2018-Feb-16 17:54N 29°42' W 095°03'0 0.0
2018-Feb-16 17:30N 29°42' W 095°03'0 0.0
2018-Feb-16 17:00N 29°42' W 095°03'0 0.0
2018-Feb-16 16:26N 29°42' W 095°03'0 0.0
2018-Feb-16 15:59N 29°42' W 095°03'0 0.0
2018-Feb-16 15:28N 29°42' W 095°03'0 0.0
2018-Feb-16 15:00N 29°42' W 095°03'0 0.0
2018-Feb-16 14:23N 29°42' W 095°03'2 0.3
2018-Feb-16 09:24N 29°44' W 095°03'0 0.0
2018-Feb-16 09:00N 29°44' W 095°03'0 0.0
2018-Feb-16 08:18N 29°44' W 095°03'0 0.0
2018-Feb-16 07:49N 29°44' W 095°03'0 0.0
2018-Feb-16 07:26N 29°44' W 095°03'0 0.0
2018-Feb-16 06:57N 29°44' W 095°03'0 0.0
2018-Feb-16 06:30N 29°44' W 095°03'0 0.0
2018-Feb-16 06:00N 29°44' W 095°03'0 0.0
2018-Feb-16 05:30N 29°44' W 095°03'0 0.0
2018-Feb-16 04:59N 29°44' W 095°03'2 2.1
2018-Feb-16 04:10N 29°43' W 095°01'2 0.2
2018-Feb-15 19:36N 29°42' W 095°03'0 0.0
2018-Feb-15 06:27N 29°42' W 095°03'  
2018-Feb-10 22:49N 29°42' W 095°01'2 5.7
2018-Feb-10 22:28N 29°41' W 094°59'5 6.0
2018-Feb-10 21:42N 29°37' W 094°58'1 6.5
2018-Feb-10 21:30N 29°37' W 094°60'1 3.0
2018-Feb-10 21:01N 29°37' W 095°02'0 0.0
2018-Feb-10 20:31N 29°37' W 095°02'0 0.0
2018-Feb-10 20:00N 29°37' W 095°02'0 0.0
2018-Feb-10 19:31N 29°37' W 095°02'0 0.0
2018-Feb-10 19:00N 29°37' W 095°02'0 0.0
2018-Feb-10 18:31N 29°37' W 095°02'0 0.0
2018-Feb-10 18:00N 29°37' W 095°02'0 0.0
2018-Feb-10 17:29N 29°37' W 095°02'0 0.0
2018-Feb-10 17:00N 29°37' W 095°02'0 0.0
2018-Feb-10 16:30N 29°37' W 095°02'0 0.0
2018-Feb-10 16:00N 29°37' W 095°02'0 0.0
2018-Feb-10 15:27N 29°37' W 095°02'0 0.0
2018-Feb-10 15:00N 29°37' W 095°02'0 0.0
2018-Feb-10 14:28N 29°37' W 095°02'0 0.0
2018-Feb-10 14:00N 29°37' W 095°02'0 0.0
2018-Feb-10 13:26N 29°37' W 095°02'0 0.0
2018-Feb-10 12:57N 29°37' W 095°02'0 0.0
2018-Feb-10 12:27N 29°37' W 095°02'0 0.0
2018-Feb-10 12:00N 29°37' W 095°02'0 0.0
2018-Feb-10 11:31N 29°37' W 095°02'0 0.0
2018-Feb-10 11:01N 29°37' W 095°02'0 0.0
2018-Feb-10 10:31N 29°37' W 095°02'0 0.0
2018-Feb-10 10:00N 29°37' W 095°02'0 0.0
2018-Feb-10 09:30N 29°37' W 095°02'  

Dump ship's entire track history